sensor_id;sensor_type;location;lat;lon;timestamp;pressure;altitude;pressure_sealevel;temperature;humidity
57572;BME280;44459;43.522;24.470;2023-03-13T00:01:15;100721.97;;;0.91;81.10
57572;BME280;44459;43.522;24.470;2023-03-13T00:03:41;100725.31;;;0.88;81.24
57572;BME280;44459;43.522;24.470;2023-03-13T00:06:07;100728.34;;;0.80;81.23
57572;BME280;44459;43.522;24.470;2023-03-13T00:08:32;100736.94;;;0.79;81.23
57572;BME280;44459;43.522;24.470;2023-03-13T00:11:05;100731.50;;;0.74;81.07
57572;BME280;44459;43.522;24.470;2023-03-13T00:13:31;100733.69;;;0.67;81.61
57572;BME280;44459;43.522;24.470;2023-03-13T00:16:01;100739.53;;;0.63;82.04
57572;BME280;44459;43.522;24.470;2023-03-13T00:18:26;100746.25;;;0.59;82.38
57572;BME280;44459;43.522;24.470;2023-03-13T00:21:04;100746.03;;;0.55;82.55
57572;BME280;44459;43.522;24.470;2023-03-13T00:23:31;100743.19;;;0.50;82.73
57572;BME280;44459;43.522;24.470;2023-03-13T00:26:09;100746.34;;;0.44;83.00
57572;BME280;44459;43.522;24.470;2023-03-13T00:28:36;100752.25;;;0.42;83.44
57572;BME280;44459;43.522;24.470;2023-03-13T00:31:03;100748.13;;;0.45;83.05
57572;BME280;44459;43.522;24.470;2023-03-13T00:33:33;100744.56;;;0.43;82.87
57572;BME280;44459;43.522;24.470;2023-03-13T00:36:00;100745.63;;;0.47;83.28
57572;BME280;44459;43.522;24.470;2023-03-13T00:38:30;100747.41;;;0.48;82.96
57572;BME280;44459;43.522;24.470;2023-03-13T00:41:16;100749.75;;;0.43;83.24
57572;BME280;44459;43.522;24.470;2023-03-13T00:43:43;100753.88;;;0.40;83.23
57572;BME280;44459;43.522;24.470;2023-03-13T00:46:09;100743.72;;;0.28;83.65
57572;BME280;44459;43.522;24.470;2023-03-13T00:48:35;100744.44;;;0.26;83.79
57572;BME280;44459;43.522;24.470;2023-03-13T00:51:02;100745.41;;;0.28;83.61
57572;BME280;44459;43.522;24.470;2023-03-13T00:53:27;100741.78;;;0.24;83.97
57572;BME280;44459;43.522;24.470;2023-03-13T00:56:00;100742.00;;;0.29;83.88
57572;BME280;44459;43.522;24.470;2023-03-13T00:58:28;100736.81;;;0.29;83.74
57572;BME280;44459;43.522;24.470;2023-03-13T01:00:54;100740.41;;;0.31;83.49
57572;BME280;44459;43.522;24.470;2023-03-13T01:03:21;100731.72;;;0.30;83.92
57572;BME280;44459;43.522;24.470;2023-03-13T01:06:00;100737.16;;;0.35;83.82
57572;BME280;44459;43.522;24.470;2023-03-13T01:08:27;100734.53;;;0.35;83.43
57572;BME280;44459;43.522;24.470;2023-03-13T01:11:00;100738.13;;;0.37;83.62
57572;BME280;44459;43.522;24.470;2023-03-13T01:13:27;100727.22;;;0.28;83.53
57572;BME280;44459;43.522;24.470;2023-03-13T01:15:53;100748.00;;;0.28;83.52
57572;BME280;44459;43.522;24.470;2023-03-13T01:18:19;100744.78;;;0.32;83.45
57572;BME280;44459;43.522;24.470;2023-03-13T01:20:44;100743.88;;;0.31;83.92
57572;BME280;44459;43.522;24.470;2023-03-13T01:23:09;100741.22;;;0.30;84.04
57572;BME280;44459;43.522;24.470;2023-03-13T01:25:36;100746.13;;;0.25;83.60
57572;BME280;44459;43.522;24.470;2023-03-13T01:28:04;100749.56;;;0.24;83.88
57572;BME280;44459;43.522;24.470;2023-03-13T01:30:30;100742.78;;;0.12;84.37
57572;BME280;44459;43.522;24.470;2023-03-13T01:32:55;100740.03;;;0.09;84.60
57572;BME280;44459;43.522;24.470;2023-03-13T01:35:21;100734.66;;;0.06;84.58
57572;BME280;44459;43.522;24.470;2023-03-13T01:37:46;100746.13;;;0.09;84.67
57572;BME280;44459;43.522;24.470;2023-03-13T01:40:12;100740.50;;;0.02;84.88
57572;BME280;44459;43.522;24.470;2023-03-13T01:42:56;100746.31;;;-0.03;84.96
57572;BME280;44459;43.522;24.470;2023-03-13T01:48:16;100759.41;;;-0.16;85.20
57572;BME280;44459;43.522;24.470;2023-03-13T01:50:41;100750.13;;;-0.27;85.86
57572;BME280;44459;43.522;24.470;2023-03-13T01:53:07;100765.50;;;-0.30;86.00
57572;BME280;44459;43.522;24.470;2023-03-13T01:55:33;100767.31;;;-0.29;86.01
57572;BME280;44459;43.522;24.470;2023-03-13T01:57:58;100758.72;;;-0.28;85.97
57572;BME280;44459;43.522;24.470;2023-03-13T02:00:30;100764.09;;;-0.25;86.25
57572;BME280;44459;43.522;24.470;2023-03-13T02:03:02;100765.78;;;-0.25;86.21
57572;BME280;44459;43.522;24.470;2023-03-13T02:05:30;100760.50;;;-0.27;86.17
57572;BME280;44459;43.522;24.470;2023-03-13T02:08:06;100769.44;;;-0.22;86.28
57572;BME280;44459;43.522;24.470;2023-03-13T02:10:37;100776.41;;;-0.21;86.33
57572;BME280;44459;43.522;24.470;2023-03-13T02:13:03;100772.03;;;-0.22;86.51
57572;BME280;44459;43.522;24.470;2023-03-13T02:15:29;100771.03;;;-0.24;86.07
57572;BME280;44459;43.522;24.470;2023-03-13T02:17:55;100782.41;;;-0.22;86.09
57572;BME280;44459;43.522;24.470;2023-03-13T02:20:22;100782.25;;;-0.25;86.29
57572;BME280;44459;43.522;24.470;2023-03-13T02:23:26;100785.28;;;-0.32;86.59
57572;BME280;44459;43.522;24.470;2023-03-13T02:25:55;100792.91;;;-0.35;86.68
57572;BME280;44459;43.522;24.470;2023-03-13T02:28:26;100790.66;;;-0.29;86.52
57572;BME280;44459;43.522;24.470;2023-03-13T02:30:57;100793.25;;;-0.29;86.31
57572;BME280;44459;43.522;24.470;2023-03-13T02:33:26;100796.00;;;-0.26;86.01
57572;BME280;44459;43.522;24.470;2023-03-13T02:35:53;100795.72;;;-0.30;86.21
57572;BME280;44459;43.522;24.470;2023-03-13T02:38:29;100805.41;;;-0.28;86.07
57572;BME280;44459;43.522;24.470;2023-03-13T02:40:55;100801.19;;;-0.26;85.92
57572;BME280;44459;43.522;24.470;2023-03-13T02:43:28;100809.16;;;-0.23;85.80
57572;BME280;44459;43.522;24.470;2023-03-13T02:46:13;100814.97;;;-0.27;85.78
57572;BME280;44459;43.522;24.470;2023-03-13T02:48:56;100817.22;;;-0.33;86.04
57572;BME280;44459;43.522;24.470;2023-03-13T02:51:38;100822.03;;;-0.39;86.49
57572;BME280;44459;43.522;24.470;2023-03-13T02:54:26;100813.66;;;-0.35;86.63
57572;BME280;44459;43.522;24.470;2023-03-13T02:56:55;100819.91;;;-0.31;86.85
57572;BME280;44459;43.522;24.470;2023-03-13T02:59:22;100811.84;;;-0.36;87.04
57572;BME280;44459;43.522;24.470;2023-03-13T03:01:47;100811.22;;;-0.32;86.77
57572;BME280;44459;43.522;24.470;2023-03-13T03:04:18;100826.16;;;-0.28;87.03
57572;BME280;44459;43.522;24.470;2023-03-13T03:06:44;100818.28;;;-0.29;86.84
57572;BME280;44459;43.522;24.470;2023-03-13T03:09:09;100817.22;;;-0.33;86.69
57572;BME280;44459;43.522;24.470;2023-03-13T03:11:35;100826.50;;;-0.36;86.88
57572;BME280;44459;43.522;24.470;2023-03-13T03:14:01;100839.56;;;-0.35;86.72
57572;BME280;44459;43.522;24.470;2023-03-13T03:16:26;100835.19;;;-0.36;86.90
57572;BME280;44459;43.522;24.470;2023-03-13T03:18:52;100837.78;;;-0.36;86.98
57572;BME280;44459;43.522;24.470;2023-03-13T03:21:17;100839.56;;;-0.35;86.64
57572;BME280;44459;43.522;24.470;2023-03-13T03:23:42;100839.47;;;-0.36;86.63
57572;BME280;44459;43.522;24.470;2023-03-13T03:26:08;100843.59;;;-0.40;86.96
57572;BME280;44459;43.522;24.470;2023-03-13T03:28:34;100848.88;;;-0.38;87.05
57572;BME280;44459;43.522;24.470;2023-03-13T03:31:17;100849.66;;;-0.39;87.31
57572;BME280;44459;43.522;24.470;2023-03-13T03:33:43;100862.63;;;-0.39;86.87
57572;BME280;44459;43.522;24.470;2023-03-13T03:36:12;100854.69;;;-0.42;86.90
57572;BME280;44459;43.522;24.470;2023-03-13T03:38:39;100863.88;;;-0.47;87.35
57572;BME280;44459;43.522;24.470;2023-03-13T03:41:06;100874.78;;;-0.53;87.49
57572;BME280;44459;43.522;24.470;2023-03-13T03:43:32;100882.19;;;-0.59;87.12
57572;BME280;44459;43.522;24.470;2023-03-13T03:45:58;100875.66;;;-0.67;87.51
57572;BME280;44459;43.522;24.470;2023-03-13T03:48:23;100882.81;;;-0.63;87.52
57572;BME280;44459;43.522;24.470;2023-03-13T03:50:48;100886.38;;;-0.61;87.56
57572;BME280;44459;43.522;24.470;2023-03-13T03:53:14;100901.75;;;-0.64;87.56
57572;BME280;44459;43.522;24.470;2023-03-13T03:55:39;100908.72;;;-0.63;87.84
57572;BME280;44459;43.522;24.470;2023-03-13T03:58:05;100907.72;;;-0.65;87.86
57572;BME280;44459;43.522;24.470;2023-03-13T04:00:30;100917.19;;;-0.66;87.89
57572;BME280;44459;43.522;24.470;2023-03-13T04:02:56;100925.22;;;-0.76;87.92
57572;BME280;44459;43.522;24.470;2023-03-13T04:05:22;100931.63;;;-0.84;88.24
57572;BME280;44459;43.522;24.470;2023-03-13T04:07:48;100924.53;;;-0.86;88.34
57572;BME280;44459;43.522;24.470;2023-03-13T04:10:13;100923.75;;;-0.85;88.45
57572;BME280;44459;43.522;24.470;2023-03-13T04:12:39;100941.28;;;-0.81;88.36
57572;BME280;44459;43.522;24.470;2023-03-13T04:15:05;100945.69;;;-0.80;88.28
57572;BME280;44459;43.522;24.470;2023-03-13T04:17:31;100948.75;;;-0.86;88.34
57572;BME280;44459;43.522;24.470;2023-03-13T04:19:57;100963.16;;;-0.91;88.52
57572;BME280;44459;43.522;24.470;2023-03-13T04:22:23;100960.06;;;-0.98;88.67
57572;BME280;44459;43.522;24.470;2023-03-13T04:24:48;100961.94;;;-0.96;88.90
57572;BME280;44459;43.522;24.470;2023-03-13T04:27:13;100950.78;;;-0.95;88.74
57572;BME280;44459;43.522;24.470;2023-03-13T04:29:39;100957.56;;;-0.97;88.42
57572;BME280;44459;43.522;24.470;2023-03-13T04:32:05;100965.53;;;-0.94;88.53
57572;BME280;44459;43.522;24.470;2023-03-13T04:34:30;100978.41;;;-0.95;88.53
57572;BME280;44459;43.522;24.470;2023-03-13T04:36:56;100973.03;;;-0.98;88.65
57572;BME280;44459;43.522;24.470;2023-03-13T04:39:21;100961.66;;;-1.01;89.06
57572;BME280;44459;43.522;24.470;2023-03-13T04:41:51;100972.13;;;-0.99;89.33
57572;BME280;44459;43.522;24.470;2023-03-13T04:44:16;100974.19;;;-0.93;89.52
57572;BME280;44459;43.522;24.470;2023-03-13T04:46:42;100971.41;;;-0.96;89.19
57572;BME280;44459;43.522;24.470;2023-03-13T04:49:07;100972.13;;;-0.99;89.13
57572;BME280;44459;43.522;24.470;2023-03-13T04:51:33;100969.53;;;-0.99;88.80
57572;BME280;44459;43.522;24.470;2023-03-13T04:53:58;100974.81;;;-0.97;88.94
57572;BME280;44459;43.522;24.470;2023-03-13T04:56:25;100985.06;;;-0.99;88.92
57572;BME280;44459;43.522;24.470;2023-03-13T04:58:51;100993.03;;;-0.96;89.11
57572;BME280;44459;43.522;24.470;2023-03-13T05:01:17;100996.63;;;-0.94;88.80
57572;BME280;44459;43.522;24.470;2023-03-13T05:03:42;101006.59;;;-0.87;89.34
57572;BME280;44459;43.522;24.470;2023-03-13T05:06:07;101010.47;;;-0.80;89.13
57572;BME280;44459;43.522;24.470;2023-03-13T05:08:33;101009.03;;;-0.75;88.80
57572;BME280;44459;43.522;24.470;2023-03-13T05:11:00;101016.91;;;-0.61;88.80
57572;BME280;44459;43.522;24.470;2023-03-13T05:13:26;101018.28;;;-0.53;88.42
57572;BME280;44459;43.522;24.470;2023-03-13T05:15:52;101014.63;;;-0.41;88.12
57572;BME280;44459;43.522;24.470;2023-03-13T05:18:17;101011.00;;;-0.30;88.11
57572;BME280;44459;43.522;24.470;2023-03-13T05:20:42;101019.59;;;-0.04;88.18
57572;BME280;44459;43.522;24.470;2023-03-13T05:23:08;101021.75;;;0.18;87.66
57572;BME280;44459;43.522;24.470;2023-03-13T05:25:33;101023.38;;;0.45;86.59
57572;BME280;44459;43.522;24.470;2023-03-13T05:27:59;101030.09;;;0.71;84.84
57572;BME280;44459;43.522;24.470;2023-03-13T05:30:24;101023.69;;;0.95;83.27
57572;BME280;44459;43.522;24.470;2023-03-13T05:32:50;101028.00;;;1.26;81.54
57572;BME280;44459;43.522;24.470;2023-03-13T05:35:15;101011.25;;;1.51;80.93
57572;BME280;44459;43.522;24.470;2023-03-13T05:37:41;101022.50;;;1.83;80.82
57572;BME280;44459;43.522;24.470;2023-03-13T05:40:08;101016.47;;;2.00;78.24
57572;BME280;44459;43.522;24.470;2023-03-13T05:42:33;101019.25;;;1.87;77.05
57572;BME280;44459;43.522;24.470;2023-03-13T05:44:59;101011.75;;;1.77;78.59
57572;BME280;44459;43.522;24.470;2023-03-13T05:47:24;101021.13;;;1.73;78.42
57572;BME280;44459;43.522;24.470;2023-03-13T05:49:50;101028.91;;;1.89;78.85
57572;BME280;44459;43.522;24.470;2023-03-13T05:52:15;101027.72;;;2.33;78.96
57572;BME280;44459;43.522;24.470;2023-03-13T05:54:40;101018.19;;;2.85;77.25
57572;BME280;44459;43.522;24.470;2023-03-13T05:57:06;101030.28;;;3.36;74.24
57572;BME280;44459;43.522;24.470;2023-03-13T05:59:31;101035.34;;;3.70;72.67
57572;BME280;44459;43.522;24.470;2023-03-13T06:01:57;101027.94;;;3.98;70.46
57572;BME280;44459;43.522;24.470;2023-03-13T06:04:22;101027.03;;;4.36;69.36
57572;BME280;44459;43.522;24.470;2023-03-13T06:06:48;101020.03;;;4.76;67.75
57572;BME280;44459;43.522;24.470;2023-03-13T06:09:13;101021.22;;;5.05;67.14
57572;BME280;44459;43.522;24.470;2023-03-13T06:11:38;101014.25;;;5.48;65.64
57572;BME280;44459;43.522;24.470;2023-03-13T06:14:04;101010.56;;;5.88;64.17
57572;BME280;44459;43.522;24.470;2023-03-13T06:16:29;101004.97;;;6.26;62.98
57572;BME280;44459;43.522;24.470;2023-03-13T06:18:55;100993.19;;;6.64;61.72
57572;BME280;44459;43.522;24.470;2023-03-13T06:21:20;101001.09;;;7.18;60.72
57572;BME280;44459;43.522;24.470;2023-03-13T06:23:48;100997.06;;;7.57;59.84
57572;BME280;44459;43.522;24.470;2023-03-13T06:26:14;101008.38;;;7.83;57.79
57572;BME280;44459;43.522;24.470;2023-03-13T06:28:39;101004.44;;;8.28;56.80
57572;BME280;44459;43.522;24.470;2023-03-13T06:31:05;101005.13;;;8.54;55.52
57572;BME280;44459;43.522;24.470;2023-03-13T06:33:32;101012.97;;;8.85;54.86
57572;BME280;44459;43.522;24.470;2023-03-13T06:35:59;101008.38;;;9.11;53.53
57572;BME280;44459;43.522;24.470;2023-03-13T06:38:25;101006.25;;;9.32;53.18
57572;BME280;44459;43.522;24.470;2023-03-13T06:40:51;101010.28;;;9.55;52.63
57572;BME280;44459;43.522;24.470;2023-03-13T06:43:17;101010.28;;;9.55;52.68
57572;BME280;44459;43.522;24.470;2023-03-13T06:45:43;101020.03;;;10.00;52.96
57572;BME280;44459;43.522;24.470;2023-03-13T06:48:08;101014.56;;;10.30;51.38
57572;BME280;44459;43.522;24.470;2023-03-13T06:50:37;101020.59;;;10.71;51.67
57572;BME280;44459;43.522;24.470;2023-03-13T06:53:03;101012.59;;;11.17;49.65
57572;BME280;44459;43.522;24.470;2023-03-13T06:55:30;101007.41;;;11.25;48.38
57572;BME280;44459;43.522;24.470;2023-03-13T06:57:55;101007.91;;;11.55;47.52
57572;BME280;44459;43.522;24.470;2023-03-13T07:00:21;100995.22;;;11.93;47.35
57572;BME280;44459;43.522;24.470;2023-03-13T07:02:47;101001.75;;;12.21;45.38
57572;BME280;44459;43.522;24.470;2023-03-13T07:05:12;100984.31;;;12.41;45.40
57572;BME280;44459;43.522;24.470;2023-03-13T07:07:39;100981.38;;;13.04;44.81
57572;BME280;44459;43.522;24.470;2023-03-13T07:10:05;100982.41;;;13.18;43.46
57572;BME280;44459;43.522;24.470;2023-03-13T07:12:33;100983.50;;;13.49;41.78
57572;BME280;44459;43.522;24.470;2023-03-13T07:14:59;100987.13;;;13.63;42.26
57572;BME280;44459;43.522;24.470;2023-03-13T07:17:24;100994.19;;;13.63;41.51
57572;BME280;44459;43.522;24.470;2023-03-13T07:19:50;100990.88;;;14.04;41.29
57572;BME280;44459;43.522;24.470;2023-03-13T07:22:15;100992.88;;;14.71;40.19
57572;BME280;44459;43.522;24.470;2023-03-13T07:24:41;100984.03;;;14.85;38.48
57572;BME280;44459;43.522;24.470;2023-03-13T07:27:06;100988.44;;;15.41;38.52
57572;BME280;44459;43.522;24.470;2023-03-13T07:29:31;100985.69;;;15.83;37.69
57572;BME280;44459;43.522;24.470;2023-03-13T07:31:57;100978.34;;;16.35;37.07
57572;BME280;44459;43.522;24.470;2023-03-13T07:34:22;100980.16;;;16.30;35.30
57572;BME280;44459;43.522;24.470;2023-03-13T07:36:47;100978.53;;;16.02;36.02
57572;BME280;44459;43.522;24.470;2023-03-13T07:39:13;100993.53;;;16.18;35.79
57572;BME280;44459;43.522;24.470;2023-03-13T07:41:38;100982.69;;;16.54;35.18
57572;BME280;44459;43.522;24.470;2023-03-13T07:44:04;100983.50;;;16.70;35.09
57572;BME280;44459;43.522;24.470;2023-03-13T07:46:29;100985.00;;;17.06;33.43
57572;BME280;44459;43.522;24.470;2023-03-13T07:48:55;100985.56;;;17.43;32.33
57572;BME280;44459;43.522;24.470;2023-03-13T07:51:22;100980.75;;;17.80;31.84
57572;BME280;44459;43.522;24.470;2023-03-13T07:53:49;100983.00;;;18.15;30.48
57572;BME280;44459;43.522;24.470;2023-03-13T07:56:17;100994.31;;;17.60;30.65
57572;BME280;44459;43.522;24.470;2023-03-13T07:58:43;100998.38;;;17.03;30.76
57572;BME280;44459;43.522;24.470;2023-03-13T08:01:16;100999.06;;;17.28;30.63
57572;BME280;44459;43.522;24.470;2023-03-13T08:03:43;100992.59;;;17.50;30.40
57572;BME280;44459;43.522;24.470;2023-03-13T08:06:11;100991.66;;;17.57;30.31
57572;BME280;44459;43.522;24.470;2023-03-13T08:08:38;100982.94;;;18.19;29.47
57572;BME280;44459;43.522;24.470;2023-03-13T08:11:07;100980.06;;;18.34;29.49
57572;BME280;44459;43.522;24.470;2023-03-13T08:13:33;100987.06;;;19.02;29.59
57572;BME280;44459;43.522;24.470;2023-03-13T08:16:05;100984.81;;;19.30;27.87
57572;BME280;44459;43.522;24.470;2023-03-13T08:18:31;100995.59;;;19.76;28.04
57572;BME280;44459;43.522;24.470;2023-03-13T08:21:06;100981.47;;;20.13;26.94
57572;BME280;44459;43.522;24.470;2023-03-13T08:23:32;100989.47;;;20.16;26.73
57572;BME280;44459;43.522;24.470;2023-03-13T08:28:31;100987.97;;;19.55;27.41
57572;BME280;44459;43.522;24.470;2023-03-13T08:30:56;100980.19;;;19.43;27.33
57572;BME280;44459;43.522;24.470;2023-03-13T08:33:22;100970.28;;;17.62;29.33
57572;BME280;44459;43.522;24.470;2023-03-13T08:35:47;100983.03;;;15.85;32.52
57572;BME280;44459;43.522;24.470;2023-03-13T08:38:13;100973.06;;;13.79;35.58
57572;BME280;44459;43.522;24.470;2023-03-13T08:40:38;100972.19;;;12.64;37.46
57572;BME280;44459;43.522;24.470;2023-03-13T08:43:04;100970.09;;;11.62;39.12
57572;BME280;44459;43.522;24.470;2023-03-13T08:45:29;100981.88;;;10.71;42.99
57572;BME280;44459;43.522;24.470;2023-03-13T08:47:54;100975.72;;;9.82;45.00
57572;BME280;44459;43.522;24.470;2023-03-13T08:50:20;100977.22;;;9.70;46.37
57572;BME280;44459;43.522;24.470;2023-03-13T08:52:45;100976.41;;;9.33;45.78
57572;BME280;44459;43.522;24.470;2023-03-13T08:55:11;100973.94;;;9.03;46.91
57572;BME280;44459;43.522;24.470;2023-03-13T08:57:36;100968.69;;;8.69;46.93
57572;BME280;44459;43.522;24.470;2023-03-13T09:00:02;100979.63;;;8.51;47.06
57572;BME280;44459;43.522;24.470;2023-03-13T09:02:30;100975.97;;;8.45;48.60
57572;BME280;44459;43.522;24.470;2023-03-13T09:04:56;100978.81;;;8.54;48.88
57572;BME280;44459;43.522;24.470;2023-03-13T09:07:21;100973.66;;;8.57;48.91
57572;BME280;44459;43.522;24.470;2023-03-13T09:09:47;100958.09;;;8.33;49.69
57572;BME280;44459;43.522;24.470;2023-03-13T09:12:12;100963.34;;;8.33;50.20
57572;BME280;44459;43.522;24.470;2023-03-13T09:14:37;100954.16;;;8.19;50.54
57572;BME280;44459;43.522;24.470;2023-03-13T09:17:03;100958.03;;;8.30;49.90
57572;BME280;44459;43.522;24.470;2023-03-13T09:19:28;100957.19;;;8.31;49.61
57572;BME280;44459;43.522;24.470;2023-03-13T09:21:54;100957.22;;;8.01;48.86
57572;BME280;44459;43.522;24.470;2023-03-13T09:24:19;100952.81;;;8.00;48.82
57572;BME280;44459;43.522;24.470;2023-03-13T09:26:45;100957.97;;;7.97;49.60
57572;BME280;44459;43.522;24.470;2023-03-13T09:29:10;100962.34;;;7.97;50.28
57572;BME280;44459;43.522;24.470;2023-03-13T09:31:36;100958.50;;;8.16;49.83
57572;BME280;44459;43.522;24.470;2023-03-13T09:34:02;100958.09;;;8.33;50.94
57572;BME280;44459;43.522;24.470;2023-03-13T09:36:29;100950.19;;;8.32;49.98
57572;BME280;44459;43.522;24.470;2023-03-13T09:38:56;100953.63;;;8.29;50.39
57572;BME280;44459;43.522;24.470;2023-03-13T09:41:31;100945.06;;;8.36;49.21
57572;BME280;44459;43.522;24.470;2023-03-13T09:44:05;100944.44;;;8.46;50.11
57572;BME280;44459;43.522;24.470;2023-03-13T09:46:38;100945.22;;;8.44;49.04
57572;BME280;44459;43.522;24.470;2023-03-13T09:52:18;100936.66;;;8.51;49.33
57572;BME280;44459;43.522;24.470;2023-03-13T09:57:45;100925.88;;;8.76;49.73
57572;BME280;44459;43.522;24.470;2023-03-13T10:00:18;100921.97;;;8.95;49.93
57572;BME280;44459;43.522;24.470;2023-03-13T10:02:57;100922.47;;;9.16;48.16
57572;BME280;44459;43.522;24.470;2023-03-13T10:05:28;100918.22;;;9.23;46.15
57572;BME280;44459;43.522;24.470;2023-03-13T10:11:05;100908.69;;;9.29;46.31
57572;BME280;44459;43.522;24.470;2023-03-13T10:14:10;100907.03;;;9.33;47.83
57572;BME280;44459;43.522;24.470;2023-03-13T10:19:16;100899.66;;;9.18;47.97
57572;BME280;44459;43.522;24.470;2023-03-13T10:21:46;100885.59;;;9.16;49.23
57572;BME280;44459;43.522;24.470;2023-03-13T10:24:29;100888.28;;;9.21;47.86
57572;BME280;44459;43.522;24.470;2023-03-13T10:26:56;100889.38;;;9.30;49.03
57572;BME280;44459;43.522;24.470;2023-03-13T10:29:24;100879.41;;;9.56;49.67
57572;BME280;44459;43.522;24.470;2023-03-13T10:32:01;100880.94;;;9.88;51.31
57572;BME280;44459;43.522;24.470;2023-03-13T10:37:32;100860.38;;;10.16;46.52
57572;BME280;44459;43.522;24.470;2023-03-13T10:40:18;100863.16;;;10.25;46.10
57572;BME280;44459;43.522;24.470;2023-03-13T10:42:44;100859.56;;;10.20;45.50
57572;BME280;44459;43.522;24.470;2023-03-13T10:45:15;100857.72;;;10.16;45.65
57572;BME280;44459;43.522;24.470;2023-03-13T10:47:42;100861.50;;;10.30;45.74
57572;BME280;44459;43.522;24.470;2023-03-13T10:50:17;100857.13;;;10.30;46.82
57572;BME280;44459;43.522;24.470;2023-03-13T10:52:44;100856.44;;;10.43;43.32
57572;BME280;44459;43.522;24.470;2023-03-13T10:57:54;100837.03;;;10.40;43.84
57572;BME280;44459;43.522;24.470;2023-03-13T11:03:01;100836.91;;;10.32;44.20
57572;BME280;44459;43.522;24.470;2023-03-13T11:05:32;100830.72;;;10.30;45.35
57572;BME280;44459;43.522;24.470;2023-03-13T11:08:20;100826.63;;;10.49;45.76
57572;BME280;44459;43.522;24.470;2023-03-13T11:13:33;100800.75;;;10.84;46.08
57572;BME280;44459;43.522;24.470;2023-03-13T11:24:27;100793.72;;;10.84;44.79
57572;BME280;44459;43.522;24.470;2023-03-13T11:27:27;100799.06;;;10.89;43.71
57572;BME280;44459;43.522;24.470;2023-03-13T11:30:35;100792.88;;;10.88;43.58
57572;BME280;44459;43.522;24.470;2023-03-13T11:36:10;100784.28;;;11.03;43.66
57572;BME280;44459;43.522;24.470;2023-03-13T11:38:40;100779.31;;;11.27;45.56
57572;BME280;44459;43.522;24.470;2023-03-13T11:50:14;100759.50;;;11.69;42.16
57572;BME280;44459;43.522;24.470;2023-03-13T12:01:20;100750.44;;;11.47;44.38
57572;BME280;44459;43.522;24.470;2023-03-13T12:06:39;100747.97;;;11.63;43.04
57572;BME280;44459;43.522;24.470;2023-03-13T12:09:16;100754.19;;;11.70;41.05
57572;BME280;44459;43.522;24.470;2023-03-13T12:12:10;100739.94;;;11.53;41.34
57572;BME280;44459;43.522;24.470;2023-03-13T12:15:01;100723.91;;;11.35;40.98
57572;BME280;44459;43.522;24.470;2023-03-13T12:17:40;100727.50;;;11.43;40.02
57572;BME280;44459;43.522;24.470;2023-03-13T12:22:46;100717.06;;;11.55;41.74
57572;BME280;44459;43.522;24.470;2023-03-13T12:25:54;100714.53;;;11.69;40.28
57572;BME280;44459;43.522;24.470;2023-03-13T12:30:59;100698.66;;;11.66;41.27
57572;BME280;44459;43.522;24.470;2023-03-13T12:33:41;100712.03;;;11.84;43.29
57572;BME280;44459;43.522;24.470;2023-03-13T12:41:42;100709.59;;;12.08;41.44
57572;BME280;44459;43.522;24.470;2023-03-13T12:44:14;100704.22;;;11.96;40.40
57572;BME280;44459;43.522;24.470;2023-03-13T12:47:15;100702.56;;;12.11;43.55
57572;BME280;44459;43.522;24.470;2023-03-13T12:49:57;100703.53;;;12.26;39.73
57572;BME280;44459;43.522;24.470;2023-03-13T12:58:16;100706.19;;;12.24;40.17
57572;BME280;44459;43.522;24.470;2023-03-13T13:00:47;100702.66;;;12.21;41.62
57572;BME280;44459;43.522;24.470;2023-03-13T13:06:17;100696.50;;;12.22;38.23
57572;BME280;44459;43.522;24.470;2023-03-13T13:09:00;100698.31;;;12.32;40.16
57572;BME280;44459;43.522;24.470;2023-03-13T13:16:50;100696.38;;;12.09;40.02
57572;BME280;44459;43.522;24.470;2023-03-13T13:29:56;100685.81;;;12.09;41.04
57572;BME280;44459;43.522;24.470;2023-03-13T13:32:38;100687.47;;;11.97;40.81
57572;BME280;44459;43.522;24.470;2023-03-13T13:35:26;100687.50;;;12.04;40.61
57572;BME280;44459;43.522;24.470;2023-03-13T13:37:50;100678.66;;;12.01;39.65
57572;BME280;44459;43.522;24.470;2023-03-13T13:42:56;100686.66;;;12.08;40.88
57572;BME280;44459;43.522;24.470;2023-03-13T13:45:34;100669.88;;;12.00;40.51
57572;BME280;44459;43.522;24.470;2023-03-13T13:48:25;100674.31;;;12.09;40.53
57572;BME280;44459;43.522;24.470;2023-03-13T13:56:36;100677.31;;;12.71;38.10
57572;BME280;44459;43.522;24.470;2023-03-13T14:10:33;100643.03;;;18.45;28.47
57572;BME280;44459;43.522;24.470;2023-03-13T14:13:01;100645.09;;;18.31;27.63
57572;BME280;44459;43.522;24.470;2023-03-13T14:15:27;100647.69;;;19.23;27.64
57572;BME280;44459;43.522;24.470;2023-03-13T14:18:01;100643.97;;;20.02;26.60
57572;BME280;44459;43.522;24.470;2023-03-13T14:20:35;100643.31;;;20.60;27.08
57572;BME280;44459;43.522;24.470;2023-03-13T14:23:06;100636.56;;;20.76;25.42
57572;BME280;44459;43.522;24.470;2023-03-13T14:25:49;100633.25;;;20.97;25.31
57572;BME280;44459;43.522;24.470;2023-03-13T14:28:26;100636.94;;;20.64;25.04
57572;BME280;44459;43.522;24.470;2023-03-13T14:30:54;100641.75;;;19.85;26.02
57572;BME280;44459;43.522;24.470;2023-03-13T14:33:21;100638.66;;;19.65;25.80
57572;BME280;44459;43.522;24.470;2023-03-13T14:35:47;100640.94;;;19.03;26.88
57572;BME280;44459;43.522;24.470;2023-03-13T14:38:24;100644.91;;;18.86;26.97
57572;BME280;44459;43.522;24.470;2023-03-13T14:40:50;100637.84;;;18.37;28.54
57572;BME280;44459;43.522;24.470;2023-03-13T14:43:30;100637.22;;;18.23;27.82
57572;BME280;44459;43.522;24.470;2023-03-13T14:45:57;100638.34;;;18.57;27.21
57572;BME280;44459;43.522;24.470;2023-03-13T14:48:29;100637.31;;;18.66;27.18